Time;durP1;ratioP1;P1;durP2;ratioP2;P2;SDS_P1;SDS_P2;PMS_P1;PMS_P2;Temp;Humidity;BMP_temperature;BMP_pressure;BME280_temperature;BME280_humidity;BME280_pressure;Samples;Min_cycle;Max_cycle;Signal;HPM_P1;HPM_P2
2023/07/16 00:01:17;;;;;;;6.35;5.75;;;20.50;99.90;;;20.70;100.00;97794.88;10360406;28;20793;-78
2023/07/16 00:06:20;;;;;;;7.15;4.63;;;20.10;99.90;;;20.35;100.00;97718.09;10353425;28;20673;-78
2023/07/16 00:11:25;;;;;;;4.22;3.80;;;19.80;99.90;;;20.46;100.00;97748.59;10362803;28;20232;-79
2023/07/16 00:16:28;;;;;;;4.60;4.20;;;19.80;99.90;;;20.41;100.00;97788.31;10364592;28;20226;-79
2023/07/16 00:21:31;;;;;;;4.53;4.13;;;19.90;99.90;;;20.56;100.00;97809.34;10369278;28;20818;-78
2023/07/16 00:26:36;;;;;;;4.88;4.00;;;19.90;99.90;;;20.51;100.00;97821.34;10363824;28;20936;-78
2023/07/16 00:31:39;;;;;;;4.82;4.35;;;19.80;99.90;;;20.39;100.00;97826.34;10363661;28;20237;-80
2023/07/16 00:36:42;;;;;;;4.35;3.95;;;19.80;99.90;;;20.36;100.00;97808.13;10366882;28;20245;-79
2023/07/16 00:41:47;;;;;;;3.72;3.42;;;19.70;99.90;;;20.35;100.00;97814.16;10367954;28;20234;-77
2023/07/16 00:46:50;;;;;;;4.18;3.80;;;19.70;99.90;;;20.33;100.00;97813.25;10365780;28;20237;-78
2023/07/16 00:51:54;;;;;;;4.30;3.90;;;19.70;99.90;;;20.35;100.00;97821.97;10363262;28;20241;-78
2023/07/16 00:56:59;;;;;;;4.95;3.75;;;19.80;99.90;;;20.37;100.00;97825.44;10367612;28;20322;-77
2023/07/16 01:02:02;;;;;;;4.00;3.35;;;19.80;99.90;;;20.13;100.00;97800.78;10360815;28;20606;-79
2023/07/16 01:07:09;;;;;;;3.80;3.50;;;19.50;99.90;;;20.11;100.00;97807.66;10364555;28;20230;-79
2023/07/16 01:12:14;;;;;;;4.85;4.45;;;19.50;99.90;;;20.24;100.00;97812.25;10364776;28;20780;-78
2023/07/16 01:17:17;;;;;;;4.43;4.03;;;19.60;99.90;;;20.37;100.00;97828.03;10357339;28;20235;-78
2023/07/16 01:23:03;;;;;;;4.78;3.80;;;19.70;99.90;;;20.38;100.00;97832.41;10363270;28;20238;-79
2023/07/16 01:28:28;;;;;;;5.57;3.95;;;19.70;99.90;;;20.34;100.00;97830.56;10368591;28;20225;-79
2023/07/16 01:33:34;;;;;;;4.47;4.07;;;19.60;99.90;;;20.35;100.00;97834.94;10357139;28;20231;-79
2023/07/16 01:38:37;;;;;;;4.22;3.85;;;19.60;99.90;;;20.26;100.00;97809.69;10354072;28;20215;-79
2023/07/16 01:43:41;;;;;;;4.90;4.50;;;19.60;99.90;;;20.23;100.00;97831.28;10368140;28;20313;-78
2023/07/16 01:48:45;;;;;;;4.53;4.13;;;19.60;99.90;;;20.33;100.00;97836.63;10372939;28;20597;-78
2023/07/16 01:53:48;;;;;;;4.55;3.50;;;19.70;99.90;;;20.48;100.00;97842.94;10370844;28;20645;-79
2023/07/16 01:58:51;;;;;;;4.28;3.88;;;19.70;99.90;;;20.39;100.00;97849.72;10366286;28;20288;-78
2023/07/16 02:03:56;;;;;;;4.47;3.80;;;19.60;99.90;;;20.39;100.00;97837.59;10376527;28;20345;-78
2023/07/16 02:08:59;;;;;;;5.00;3.95;;;19.60;99.90;;;20.34;100.00;97835.75;10370212;28;20222;-80
2023/07/16 02:14:03;;;;;;;4.25;3.67;;;19.70;99.90;;;20.35;100.00;97816.75;10359870;28;20239;-78
2023/07/16 02:19:07;;;;;;;4.65;3.85;;;19.70;99.90;;;20.30;100.00;97802.81;10366999;28;20244;-80
2023/07/16 02:24:10;;;;;;;4.93;4.05;;;19.60;99.90;;;20.24;100.00;97809.66;10364319;28;20262;-77
2023/07/16 02:29:13;;;;;;;4.25;3.60;;;19.50;99.90;;;20.15;100.00;97816.41;10364042;28;20258;-78
2023/07/16 02:34:18;;;;;;;4.20;3.80;;;19.40;99.90;;;20.19;100.00;97821.66;10364161;28;20261;-79
2023/07/16 02:39:21;;;;;;;4.13;3.83;;;19.50;99.90;;;20.12;100.00;97816.34;10354840;28;20229;-78
2023/07/16 02:44:24;;;;;;;5.28;3.50;;;19.40;99.90;;;20.14;100.00;97838.84;10362484;28;20234;-79
2023/07/16 02:49:29;;;;;;;3.90;3.58;;;19.40;99.90;;;20.15;100.00;97840.63;10362803;28;20246;-79
2023/07/16 02:54:32;;;;;;;4.10;3.80;;;19.50;99.90;;;20.24;100.00;97858.97;10353371;28;20291;-77
2023/07/16 02:59:35;;;;;;;4.43;3.72;;;19.50;99.90;;;20.29;100.00;97866.84;10365272;28;20225;-78
2023/07/16 03:04:40;;;;;;;4.15;3.40;;;19.40;99.90;;;20.09;100.00;97863.88;10364427;28;20325;-78
2023/07/16 03:09:44;;;;;;;3.20;2.90;;;19.40;99.90;;;19.96;100.00;97874.84;10365434;28;20719;-78
2023/07/16 03:14:50;;;;;;;3.25;2.80;;;19.10;99.90;;;19.78;100.00;97880.53;10370253;28;20230;-78
2023/07/16 03:19:55;;;;;;;4.20;3.10;;;18.90;99.90;;;19.64;100.00;97880.19;10366625;28;20234;-77
2023/07/16 03:24:58;;;;;;;4.15;3.25;;;18.80;99.90;;;19.56;100.00;97905.09;10353917;28;20777;-76
2023/07/16 03:30:02;;;;;;;3.25;3.05;;;18.70;99.90;;;19.49;100.00;97911.88;10363482;28;20246;-77
2023/07/16 03:35:07;;;;;;;4.68;2.80;;;18.70;99.90;;;19.43;100.00;97922.09;10361237;28;20233;-77
2023/07/16 03:40:15;;;;;;;4.55;3.22;;;18.70;99.90;;;19.34;100.00;97943.50;10372469;28;20226;-78
2023/07/16 03:45:19;;;;;;;3.63;3.20;;;18.60;99.90;;;19.39;100.00;97960.88;10361720;28;20605;-77
2023/07/16 03:50:24;;;;;;;3.50;3.10;;;18.60;99.90;;;19.52;100.00;97945.63;10359078;28;20241;-79
2023/07/16 03:55:27;;;;;;;3.45;2.53;;;18.60;99.90;;;19.44;100.00;97941.13;10361138;28;20222;-78
2023/07/16 04:00:31;;;;;;;3.13;2.83;;;18.50;99.90;;;19.35;100.00;97944.38;10352809;28;20305;-77
2023/07/16 04:05:36;;;;;;;4.30;2.70;;;18.50;99.90;;;19.37;100.00;97973.78;10361138;28;20275;-79
2023/07/16 04:10:39;;;;;;;3.22;2.50;;;18.50;99.90;;;19.28;100.00;97978.75;10360039;28;20250;-78
2023/07/16 04:15:42;;;;;;;5.53;2.78;;;18.50;99.90;;;19.22;100.00;97966.50;10358624;28;20235;-78
2023/07/16 04:20:47;;;;;;;3.45;2.42;;;18.40;99.90;;;19.19;100.00;97994.06;10353874;28;20228;-77
2023/07/16 04:25:54;;;;;;;3.42;3.13;;;18.30;99.90;;;19.21;100.00;98003.63;10358298;28;20222;-79
2023/07/16 04:30:57;;;;;;;3.10;2.80;;;18.30;99.90;;;19.30;100.00;97998.69;10360922;28;20672;-78
2023/07/16 04:36:02;;;;;;;2.97;2.67;;;18.40;99.90;;;19.33;100.00;97988.38;10366311;28;20706;-77
2023/07/16 04:41:05;;;;;;;5.45;2.90;;;18.50;99.90;;;19.44;100.00;98001.63;10364706;28;20313;-78
2023/07/16 04:46:08;;;;;;;4.03;2.33;;;18.60;99.90;;;19.48;100.00;97998.25;10368979;28;20277;-78
2023/07/16 04:51:12;;;;;;;3.55;2.20;;;18.50;99.90;;;19.45;100.00;97998.16;10360097;28;20703;-78
2023/07/16 04:56:16;;;;;;;4.75;2.72;;;18.40;99.90;;;19.40;100.00;97997.22;10353762;28;20737;-80
2023/07/16 05:01:21;;;;;;;4.90;2.42;;;18.50;99.90;;;19.49;100.00;98006.94;10364206;28;20281;-78
2023/07/16 05:06:25;;;;;;;4.30;2.70;;;18.70;99.90;;;20.03;100.00;98003.88;10352608;28;20226;-79
2023/07/16 05:11:29;;;;;;;6.05;2.63;;;19.20;99.90;;;20.46;100.00;98021.25;10351645;28;20857;-78
2023/07/16 05:16:32;;;;;;;2.65;2.38;;;19.50;99.90;;;20.43;100.00;98021.19;10350821;28;20770;-77
2023/07/16 05:21:36;;;;;;;4.13;2.42;;;19.50;99.90;;;20.37;100.00;98036.59;10353975;28;20240;-79
2023/07/16 05:26:40;;;;;;;2.90;2.20;;;19.40;99.90;;;20.57;100.00;98034.47;10353851;28;20226;-80
2023/07/16 05:31:44;;;;;;;3.15;2.20;;;19.60;99.90;;;20.70;100.00;98059.84;10350265;28;20237;-79
2023/07/16 05:36:48;;;;;;;3.63;2.20;;;19.70;99.90;;;20.68;100.00;98056.34;10350114;28;20847;-77
2023/07/16 05:41:51;;;;;;;2.97;2.20;;;19.70;99.90;;;20.77;100.00;98041.78;10352415;28;20246;-78
2023/07/16 05:46:55;;;;;;;2.85;2.33;;;19.70;99.90;;;21.45;100.00;98036.13;10343975;28;20237;-78
2023/07/16 05:51:59;;;;;;;3.17;2.33;;;20.60;99.90;;;22.58;96.63;98047.38;10346429;28;20239;-78
2023/07/16 05:57:02;;;;;;;3.85;2.30;;;21.40;99.90;;;22.27;98.40;98062.59;10350636;28;20233;-78
2023/07/16 06:02:06;;;;;;;3.17;2.25;;;20.90;99.90;;;21.73;97.65;98060.88;10358929;28;20223;-77
2023/07/16 06:07:11;;;;;;;2.80;2.10;;;20.40;99.90;;;21.29;100.00;98063.53;10359724;28;20257;-77
2023/07/16 06:12:14;;;;;;;2.63;2.38;;;20.10;99.90;;;20.97;100.00;98066.44;10350380;28;20230;-77
2023/07/16 06:17:17;;;;;;;2.92;2.25;;;19.80;99.90;;;21.02;100.00;98057.00;10363507;28;20218;-77
2023/07/16 06:22:22;;;;;;;2.53;2.30;;;19.90;99.90;;;21.23;100.00;98064.34;10360706;28;20228;-79
2023/07/16 06:27:25;;;;;;;3.13;2.00;;;20.10;99.90;;;21.86;100.00;98068.00;10360062;28;20255;-78
2023/07/16 06:32:28;;;;;;;3.40;2.47;;;20.50;99.90;;;22.92;91.57;98078.19;10369063;28;20328;-77
2023/07/16 06:37:32;;;;;;;2.38;2.10;;;21.40;99.90;;;22.98;93.50;98084.34;10359299;28;20237;-78
2023/07/16 06:42:36;;;;;;;5.43;2.40;;;21.50;99.90;;;23.65;90.08;98073.75;10358645;28;20237;-78
2023/07/16 06:47:39;;;;;;;2.28;2.08;;;21.80;99.90;;;23.05;85.24;98062.72;10360848;28;20226;-77
2023/07/16 06:52:43;;;;;;;2.92;2.13;;;21.60;99.90;;;22.74;93.47;98056.25;10354181;28;20234;-77
2023/07/16 06:57:46;;;;;;;2.33;1.98;;;21.20;99.90;;;22.53;88.67;98036.03;10354231;28;20596;-76
2023/07/16 07:02:50;;;;;;;4.20;1.88;;;21.20;99.90;;;22.41;89.77;98048.03;10344891;28;20725;-77
2023/07/16 07:07:54;;;;;;;3.47;2.20;;;21.20;99.90;;;22.68;89.56;98037.06;10349426;28;20285;-77
2023/07/16 07:12:58;;;;;;;3.17;2.13;;;21.40;99.90;;;22.76;89.00;98060.63;10352047;28;20236;-78
2023/07/16 07:18:01;;;;;;;2.70;2.00;;;21.50;99.90;;;24.30;82.15;98073.38;10345742;28;20227;-78
2023/07/16 07:23:05;;;;;;;4.15;2.17;;;23.20;99.90;;;25.30;70.86;98074.72;10355767;28;20230;-77
2023/07/16 07:28:10;;;;;;;4.90;1.92;;;23.80;99.90;;;25.41;66.04;98085.19;10348131;28;20227;-78
2023/07/16 07:33:13;;;;;;;3.33;2.10;;;23.70;99.90;;;25.33;65.99;98064.25;10352103;28;20313;-78
2023/07/16 07:38:18;;;;;;;4.10;2.30;;;23.70;99.90;;;26.36;62.98;98064.22;10351415;28;20230;-78
2023/07/16 07:43:21;;;;;;;2.95;1.90;;;24.70;99.90;;;26.78;56.75;98057.09;10346956;28;20226;-78
2023/07/16 07:48:24;;;;;;;5.03;2.15;;;25.20;99.90;;;27.20;54.32;98049.91;10349080;28;20226;-79
2023/07/16 07:53:28;;;;;;;4.57;2.00;;;25.30;99.90;;;27.25;53.46;98066.53;10357374;28;20228;-78
2023/07/16 07:58:32;;;;;;;3.90;2.03;;;25.20;99.90;;;27.29;48.92;98076.09;10345514;28;20861;-78
2023/07/16 08:03:35;;;;;;;4.10;2.00;;;25.20;99.90;;;27.35;51.19;98081.31;10355706;28;20233;-80
2023/07/16 08:08:41;;;;;;;3.53;2.15;;;25.10;99.90;;;27.63;49.64;98087.25;10354025;28;20222;-78
2023/07/16 08:13:44;;;;;;;5.47;2.08;;;25.50;99.90;;;26.94;49.72;98089.41;10355665;28;20218;-80
2023/07/16 08:18:47;;;;;;;5.20;2.28;;;24.90;99.90;;;26.13;53.82;98087.00;10354669;28;20276;-80
2023/07/16 08:23:53;;;;;;;3.20;2.10;;;24.50;99.90;;;26.17;54.53;98094.84;10347255;28;20710;-79
2023/07/16 08:28:56;;;;;;;3.38;1.90;;;24.50;99.90;;;26.37;52.86;98097.41;10354152;28;20226;-78
2023/07/16 08:33:59;;;;;;;2.92;1.90;;;24.70;99.90;;;26.27;50.38;98090.47;10348806;28;20258;-79
2023/07/16 08:39:08;;;;;;;3.78;2.10;;;24.90;99.50;;;26.29;52.16;98099.19;10348908;28;20287;-78
2023/07/16 08:44:13;;;;;;;4.60;1.95;;;25.30;99.80;;;26.63;49.84;98096.50;10344890;28;20234;-79
2023/07/16 08:49:18;;;;;;;4.50;2.10;;;25.60;97.70;;;26.27;51.54;98090.47;10340342;28;20313;-77
2023/07/16 08:54:25;;;;;;;3.97;2.08;;;24.80;99.90;;;25.32;53.69;98069.47;10350864;28;20236;-77
2023/07/16 08:59:29;;;;;;;4.63;2.08;;;24.10;99.90;;;25.39;55.45;98081.69;10358464;28;20246;-78
2023/07/16 09:04:34;;;;;;;5.15;2.20;;;24.30;99.90;;;26.25;51.87;98097.44;10361275;28;20227;-78
2023/07/16 09:09:39;;;;;;;2.65;1.95;;;25.00;99.30;;;26.20;50.52;98084.34;10366410;28;20923;-77
2023/07/16 09:14:42;;;;;;;3.35;2.20;;;24.80;99.10;;;26.05;51.84;98085.25;10368986;28;20236;-78
2023/07/16 09:19:46;;;;;;;2.22;1.90;;;24.90;99.20;;;26.02;51.52;98087.88;10363548;28;20291;-77
2023/07/16 09:24:51;;;;;;;3.42;1.98;;;24.80;99.00;;;26.15;51.41;98080.84;10354490;28;20595;-78
2023/07/16 09:29:54;;;;;;;3.38;2.00;;;24.70;99.70;;;26.28;51.01;98079.97;10355055;28;20845;-78
2023/07/16 09:34:57;;;;;;;2.95;2.00;;;25.20;98.90;;;26.70;50.75;98093.88;10338081;28;20237;-77
2023/07/16 09:40:03;;;;;;;2.50;1.77;;;25.80;98.10;;;26.61;51.26;98093.00;10350240;28;20713;-77
2023/07/16 09:45:08;;;;;;;2.47;1.70;;;25.60;98.10;;;27.22;46.91;98081.44;10343792;28;20234;-78
2023/07/16 09:50:12;;;;;;;3.08;1.92;;;26.40;95.30;;;27.18;46.81;98067.41;10347708;28;20333;-78
2023/07/16 09:55:19;;;;;;;3.85;2.00;;;26.30;94.60;;;27.18;46.83;98060.44;10349947;28;20238;-79
2023/07/16 10:00:25;;;;;;;2.67;2.00;;;26.40;94.20;;;27.07;47.84;98072.72;10359539;28;20233;-79
2023/07/16 10:05:29;;;;;;;4.18;2.08;;;26.00;94.80;;;26.88;49.14;98084.19;10356656;28;20229;-77
2023/07/16 10:10:42;;;;;;;3.22;2.22;;;25.50;96.70;;;26.64;50.16;98091.28;10354564;28;20321;-77
2023/07/16 10:15:54;;;;;;;3.22;2.10;;;25.40;97.10;;;26.60;49.06;98079.03;10354850;28;20237;-77
2023/07/16 10:21:03;;;;;;;3.80;2.10;;;25.70;96.30;;;26.80;48.86;98067.59;10352953;28;20239;-78
2023/07/16 10:26:09;;;;;;;3.10;2.10;;;25.70;96.10;;;27.06;45.58;98060.47;10350565;28;20745;-78
2023/07/16 10:31:19;;;;;;;2.42;1.83;;;26.00;93.10;;;26.66;46.79;98072.91;10352860;28;20288;-78
2023/07/16 10:36:22;;;;;;;2.38;2.17;;;25.70;94.00;;;26.89;48.19;98065.78;10351386;28;20311;-76
2023/07/16 10:41:27;;;;;;;4.00;2.10;;;25.80;95.60;;;26.89;47.66;98055.31;10352258;28;20232;-78
2023/07/16 10:46:32;;;;;;;3.75;2.20;;;25.80;95.10;;;27.00;47.64;98057.00;10348403;28;20237;-79
2023/07/16 10:51:36;;;;;;;2.58;2.20;;;26.10;94.60;;;27.26;45.94;98049.88;10351884;28;20230;-78
2023/07/16 10:56:42;;;;;;;2.53;2.05;;;26.60;93.10;;;27.11;43.91;98055.19;10341798;28;21002;-78
2023/07/16 11:01:46;;;;;;;3.47;1.92;;;26.10;91.40;;;26.58;43.91;98043.19;10356166;28;20226;-78
2023/07/16 11:06:51;;;;;;;4.15;2.25;;;25.80;90.90;;;26.69;46.13;98046.66;10348625;28;20667;-78
2023/07/16 11:11:56;;;;;;;2.58;2.30;;;25.90;93.00;;;26.85;45.68;98032.59;10348930;28;20226;-79
2023/07/16 11:17:07;;;;;;;3.10;2.20;;;25.90;92.40;;;26.82;45.65;98027.38;10351642;28;20229;-78
2023/07/16 11:22:11;;;;;;;3.72;2.58;;;26.00;92.10;;;26.80;46.90;98042.22;10347778;28;20360;-79
2023/07/16 11:27:18;;;;;;;4.10;2.30;;;26.00;93.10;;;27.12;46.22;98046.44;10347578;28;20249;-78
2023/07/16 11:32:29;;;;;;;2.97;2.03;;;26.20;92.20;;;26.98;44.46;98045.63;10349845;28;20237;-77
2023/07/16 11:37:35;;;;;;;3.75;2.25;;;26.00;91.30;;;26.85;45.78;98043.09;10350304;28;20233;-76
2023/07/16 11:42:41;;;;;;;2.28;2.08;;;26.10;92.00;;;26.47;44.73;98038.84;10344836;28;20234;-77
2023/07/16 11:47:45;;;;;;;2.45;2.20;;;25.70;91.10;;;26.65;45.52;98021.34;10346216;28;20226;-78
2023/07/16 11:52:54;;;;;;;3.40;2.20;;;25.80;92.10;;;27.08;44.01;98026.34;10339945;28;20276;-78
2023/07/16 11:57:59;;;;;;;2.67;1.85;;;26.30;90.70;;;27.04;43.30;98016.75;10343647;28;20723;-78
2023/07/16 12:03:02;;;;;;;2.55;2.00;;;26.30;90.00;;;27.35;42.89;98022.69;10338770;28;20226;-78
2023/07/16 12:08:13;;;;;;;2.90;2.00;;;26.60;89.70;;;27.39;42.46;98012.16;10337767;28;20377;-77
2023/07/16 12:13:18;;;;;;;3.85;2.13;;;26.70;89.20;;;27.57;42.35;98012.91;10340464;28;20797;-78
2023/07/16 12:18:21;;;;;;;2.72;2.30;;;26.90;87.90;;;27.48;43.41;98018.22;10352480;28;20229;-77
2023/07/16 12:23:24;;;;;;;2.38;1.90;;;26.60;89.60;;;27.36;40.91;98008.69;10341500;28;21014;-76
2023/07/16 12:28:29;;;;;;;2.20;2.00;;;26.50;86.50;;;27.04;43.43;98001.00;10344541;28;20245;-77
2023/07/16 12:33:32;;;;;;;2.47;2.08;;;26.50;88.70;;;27.16;42.80;97990.47;10344654;28;20230;-78
2023/07/16 12:38:35;;;;;;;2.15;1.95;;;26.30;88.50;;;27.28;42.10;97989.50;10351666;28;20252;-77
2023/07/16 12:43:39;;;;;;;2.50;2.30;;;26.40;88.00;;;27.40;41.97;97971.03;10344354;28;20522;-78
2023/07/16 12:48:43;;;;;;;3.83;2.40;;;26.60;87.30;;;27.39;42.95;97979.78;10348298;28;20218;-77
2023/07/16 12:53:47;;;;;;;2.85;2.22;;;26.70;88.40;;;27.37;41.93;97969.28;10341095;28;20321;-77
2023/07/16 12:58:51;;;;;;;2.33;2.13;;;26.80;86.60;;;27.44;40.63;97975.34;10348785;28;20276;-78
2023/07/16 13:03:54;;;;;;;3.28;2.30;;;26.70;84.80;;;27.24;42.51;97978.13;10339761;28;20238;-78
2023/07/16 13:08:58;;;;;;;2.33;2.13;;;26.40;87.80;;;27.28;42.23;97971.13;10351385;28;20644;-78
2023/07/16 13:14:03;;;;;;;4.45;2.53;;;26.60;86.50;;;27.18;43.26;97978.19;10338728;28;20245;-77
2023/07/16 13:19:06;;;;;;;3.08;2.55;;;26.50;87.60;;;27.11;43.50;97971.22;10346535;28;20599;-77
2023/07/16 13:24:10;;;;;;;2.33;2.13;;;26.40;88.10;;;27.21;41.57;97961.53;10335911;28;20695;-78
2023/07/16 13:29:14;;;;;;;3.03;2.10;;;26.50;85.80;;;27.39;41.97;97957.03;10336548;28;20254;-78
2023/07/16 13:34:18;;;;;;;3.38;2.08;;;26.60;85.90;;;27.55;42.16;97949.88;10341059;28;20226;-79
2023/07/16 13:39:21;;;;;;;2.33;2.13;;;26.80;86.70;;;27.53;42.77;97956.03;10344120;28;20222;-80
2023/07/16 13:44:25;;;;;;;3.58;2.38;;;26.80;86.80;;;27.59;41.61;97962.09;10336579;28;20317;-79
2023/07/16 13:49:29;;;;;;;2.35;2.15;;;26.90;84.90;;;27.16;42.82;97943.22;10347167;28;20221;-78
2023/07/16 13:54:32;;;;;;;3.25;2.08;;;26.40;87.00;;;27.32;42.66;97943.94;10351636;28;20501;-76
2023/07/16 13:59:36;;;;;;;3.42;2.17;;;26.40;87.30;;;27.60;41.43;97940.19;10345556;28;20299;-78
2023/07/16 14:04:40;;;;;;;2.85;1.85;;;26.90;85.50;;;27.60;40.55;97934.06;10359442;28;20766;-78
2023/07/16 14:09:43;;;;;;;2.72;1.95;;;26.90;83.60;;;27.94;39.92;97944.28;10362105;28;20221;-77
2023/07/16 14:14:48;;;;;;;3.50;2.20;;;27.20;82.90;;;27.80;40.53;97944.41;10353575;28;20225;-77
2023/07/16 14:19:52;;;;;;;2.40;1.85;;;27.10;83.10;;;27.81;40.83;97941.78;10361512;28;20279;-78
2023/07/16 14:24:56;;;;;;;2.95;2.05;;;27.00;84.60;;;27.84;40.88;97948.75;10349862;28;20277;-77
2023/07/16 14:30:01;;;;;;;3.20;2.20;;;27.10;84.20;;;28.04;39.62;97938.00;10346005;28;20300;-77
2023/07/16 14:35:09;;;;;;;2.80;2.05;;;27.20;82.10;;;28.20;39.51;97942.22;10344675;28;20222;-78
2023/07/16 14:40:32;;;;;;;2.25;1.80;;;27.50;81.40;;;28.24;38.84;97940.41;10348993;28;20234;-77
2023/07/16 14:45:37;;;;;;;2.55;1.98;;;27.60;80.10;;;28.06;38.69;97950.25;10347161;28;20229;-77
2023/07/16 14:50:40;;;;;;;3.75;2.03;;;27.40;80.30;;;27.88;39.60;97949.59;10342773;28;20276;-78
2023/07/16 14:55:48;;;;;;;1.95;1.65;;;27.10;82.30;;;27.81;40.76;97941.78;10344037;28;20234;-77
2023/07/16 15:00:53;;;;;;;3.28;2.10;;;26.90;82.90;;;27.98;39.67;97935.47;10342460;28;20226;-77
2023/07/16 15:05:58;;;;;;;2.22;2.03;;;27.00;82.20;;;27.67;40.10;97941.03;10357023;28;20308;-78
2023/07/16 15:11:01;;;;;;;3.97;1.88;;;26.70;82.30;;;27.54;41.23;97937.63;10352097;28;20256;-78
2023/07/16 15:16:07;;;;;;;2.80;2.20;;;26.50;84.90;;;27.46;41.07;97931.56;10357708;28;20230;-78
2023/07/16 15:21:11;;;;;;;3.40;2.40;;;26.50;83.60;;;27.53;40.79;97924.53;10354204;28;20226;-78
2023/07/16 15:26:14;;;;;;;3.42;2.50;;;26.50;83.00;;;27.53;41.71;97917.50;10353673;28;20627;-78
2023/07/16 15:31:24;;;;;;;3.83;2.60;;;26.60;85.00;;;28.02;39.90;97910.91;10353541;28;20214;-77
2023/07/16 15:36:28;;;;;;;2.38;2.17;;;27.10;82.40;;;28.13;40.40;97919.53;10345415;28;20240;-77
2023/07/16 15:41:31;;;;;;;2.67;2.45;;;27.20;84.10;;;28.45;38.58;97907.75;10348338;28;20232;-78
2023/07/16 15:46:35;;;;;;;3.03;2.13;;;27.30;81.10;;;28.38;39.21;97909.53;10347382;28;20233;-77
2023/07/16 15:51:41;;;;;;;3.08;2.50;;;27.40;81.70;;;28.09;40.38;97912.56;10349491;28;20304;-77
2023/07/16 15:56:46;;;;;;;3.17;2.10;;;27.10;82.40;;;27.78;40.45;97910.22;10342095;28;20726;-77
2023/07/16 16:01:53;;;;;;;2.28;1.90;;;26.70;83.20;;;27.49;41.90;97909.66;10349541;28;20225;-77
2023/07/16 16:06:57;;;;;;;2.63;1.92;;;26.40;86.50;;;27.08;43.35;97903.00;10347987;28;20218;-77
2023/07/16 16:12:03;;;;;;;2.50;2.28;;;26.00;87.30;;;26.78;43.88;97902.34;10347240;28;20231;-78
2023/07/16 16:17:07;;;;;;;2.50;1.90;;;25.80;87.10;;;26.76;42.75;97896.25;10341193;28;20230;-77
2023/07/16 16:22:11;;;;;;;2.33;2.13;;;25.70;86.50;;;26.68;43.65;97895.44;10341166;28;20230;-79
2023/07/16 16:27:15;;;;;;;2.80;2.30;;;25.70;87.60;;;27.13;41.52;97890.72;10335139;28;20222;-77
2023/07/16 16:32:20;;;;;;;2.20;2.00;;;26.00;84.50;;;27.10;42.32;97895.97;10347312;28;20222;-77
2023/07/16 16:37:24;;;;;;;5.03;2.30;;;26.20;84.80;;;27.17;41.87;97902.97;10345393;28;20229;-78
2023/07/16 16:42:27;;;;;;;3.95;2.45;;;26.20;84.80;;;27.36;41.19;97894.03;10336513;28;20817;-78
2023/07/16 16:47:32;;;;;;;3.17;2.20;;;26.40;83.40;;;27.51;40.29;97902.66;10348036;28;20304;-78
2023/07/16 16:52:36;;;;;;;2.60;2.15;;;26.50;82.60;;;27.43;40.43;97904.47;10344010;28;20230;-77
2023/07/16 16:57:39;;;;;;;2.53;2.17;;;26.50;82.90;;;27.26;41.57;97905.50;10342905;28;20234;-78
2023/07/16 17:02:44;;;;;;;3.65;2.13;;;26.40;84.00;;;27.28;40.95;97908.13;10341654;28;20309;-78
2023/07/16 17:07:47;;;;;;;2.67;2.30;;;26.30;83.10;;;27.46;40.87;97914.94;10349330;28;20250;-78
2023/07/16 17:12:51;;;;;;;4.20;2.22;;;26.40;84.10;;;27.35;41.89;97915.91;10338208;28;20305;-77
2023/07/16 17:17:55;;;;;;;2.58;2.30;;;26.20;85.60;;;27.47;41.16;97921.94;10350125;28;20230;-78
2023/07/16 17:23:02;;;;;;;2.88;2.30;;;26.40;84.00;;;27.13;42.60;97917.84;10337138;28;20654;-77
2023/07/16 17:28:05;;;;;;;2.17;1.92;;;26.10;85.80;;;27.01;42.92;97907.41;10353407;28;20285;-78
2023/07/16 17:33:10;;;;;;;2.55;2.35;;;25.90;85.90;;;26.75;43.95;97910.22;10350888;28;20264;-77
2023/07/16 17:38:13;;;;;;;3.10;2.30;;;25.70;88.00;;;26.50;45.09;97920.88;10356279;28;20355;-78
2023/07/16 17:43:17;;;;;;;2.97;2.35;;;25.50;90.00;;;26.26;46.37;97916.59;10340088;28;20262;-77
2023/07/16 17:48:21;;;;;;;3.60;2.78;;;25.30;90.60;;;26.07;47.45;97917.56;10349072;28;20314;-77
2023/07/16 17:53:25;;;;;;;3.15;2.50;;;25.10;91.50;;;25.96;48.21;97922.84;10352849;28;20296;-77
2023/07/16 17:58:29;;;;;;;4.32;2.80;;;24.90;92.30;;;25.91;48.60;97927.22;10352505;28;20229;-79
2023/07/16 18:03:34;;;;;;;3.35;2.70;;;24.90;92.50;;;25.82;50.91;97932.44;10358477;28;20268;-78
2023/07/16 18:08:37;;;;;;;3.13;2.28;;;24.80;94.50;;;25.78;51.18;97935.94;10351381;28;20257;-79
2023/07/16 18:13:41;;;;;;;3.05;2.10;;;24.80;94.80;;;25.66;50.60;97933.34;10350435;28;20231;-78
2023/07/16 18:18:45;;;;;;;3.85;2.60;;;24.70;93.80;;;25.65;51.34;97939.47;10350225;28;20783;-80
2023/07/16 18:23:49;;;;;;;3.22;2.67;;;24.60;94.30;;;25.55;51.48;97946.44;10349615;28;20228;-79
2023/07/16 18:28:53;;;;;;;3.17;2.65;;;24.50;94.60;;;25.48;51.84;97950.81;10346380;28;20255;-77
2023/07/16 18:33:57;;;;;;;4.05;2.72;;;24.50;94.50;;;25.35;53.45;97954.31;10346046;28;20219;-78
2023/07/16 18:39:05;;;;;;;3.78;2.65;;;24.40;95.70;;;25.24;53.39;97953.44;10357925;28;20708;-77
2023/07/16 18:44:09;;;;;;;3.65;2.60;;;24.20;96.60;;;25.10;53.63;97964.75;10343579;28;20861;-77
2023/07/16 18:49:14;;;;;;;3.58;2.65;;;24.10;96.10;;;25.08;54.39;97963.00;10333559;28;20758;-77
2023/07/16 18:54:17;;;;;;;3.67;2.65;;;24.10;97.60;;;25.10;53.03;97959.50;10342203;28;20253;-77
2023/07/16 18:59:20;;;;;;;2.60;2.40;;;24.00;96.00;;;25.04;52.25;97956.91;10344478;28;20235;-77
2023/07/16 19:04:25;;;;;;;4.43;2.67;;;23.90;95.70;;;24.75;53.84;97956.81;10346743;28;20233;-78
2023/07/16 19:09:28;;;;;;;4.35;2.60;;;23.70;96.50;;;24.54;54.66;97955.03;10352561;28;20230;-77
2023/07/16 19:14:32;;;;;;;4.30;2.50;;;23.50;97.40;;;24.27;55.77;97954.03;10347066;28;20329;-78
2023/07/16 19:19:36;;;;;;;4.20;2.72;;;23.20;98.40;;;24.08;57.36;97957.44;10346838;28;20234;-78
2023/07/16 19:24:40;;;;;;;4.95;2.67;;;23.00;99.00;;;23.92;58.40;97960.81;10354822;28;20305;-78
2023/07/16 19:29:43;;;;;;;3.20;2.90;;;22.90;99.90;;;23.68;59.76;97956.31;10350288;28;20261;-78
2023/07/16 19:34:51;;;;;;;3.58;2.50;;;22.70;99.90;;;23.55;61.54;97978.81;10347147;28;20707;-78
2023/07/16 19:39:54;;;;;;;6.20;3.00;;;22.50;99.90;;;23.50;60.17;97988.38;10347243;28;20231;-78
2023/07/16 19:44:58;;;;;;;4.57;2.90;;;22.40;99.90;;;23.30;61.52;98007.34;10339873;28;20234;-78
2023/07/16 19:50:05;;;;;;;4.03;2.83;;;22.30;99.90;;;23.16;63.07;98008.94;10342310;28;20593;-77
2023/07/16 19:55:10;;;;;;;3.45;2.75;;;22.20;99.90;;;23.01;64.14;98008.81;10346312;28;20714;-79
2023/07/16 20:00:15;;;;;;;3.75;2.95;;;22.00;99.90;;;22.91;65.19;98010.38;10350616;28;20230;-77
2023/07/16 20:05:21;;;;;;;5.32;2.80;;;21.90;99.90;;;22.73;65.48;98023.22;10349383;28;20341;-77
2023/07/16 20:10:25;;;;;;;5.15;3.25;;;21.80;99.90;;;22.69;65.14;98032.72;10339760;28;20250;-77
2023/07/16 20:15:28;;;;;;;5.00;3.25;;;21.70;99.90;;;22.77;66.75;98036.28;10345144;28;20309;-77
2023/07/16 20:20:35;;;;;;;5.00;3.25;;;21.70;99.90;;;22.67;68.06;98026.63;10340369;28;20617;-77
2023/07/16 20:25:39;;;;;;;4.15;3.10;;;21.70;99.90;;;22.56;68.26;98036.94;10346773;28;20864;-78
2023/07/16 20:30:42;;;;;;;5.32;3.08;;;21.50;99.90;;;22.47;67.67;98032.47;10356152;28;20802;-79
2023/07/16 20:35:47;;;;;;;6.10;3.40;;;21.50;99.90;;;22.34;69.22;98042.72;10341358;28;20227;-76
2023/07/16 20:40:50;;;;;;;3.20;2.92;;;21.40;99.90;;;22.31;69.01;98040.94;10345885;28;20271;-77
2023/07/16 20:45:54;;;;;;;3.67;3.10;;;21.30;99.90;;;22.30;69.72;98047.00;10349567;28;20324;-77
2023/07/16 20:50:58;;;;;;;3.92;3.17;;;21.30;99.90;;;22.15;68.02;98041.53;10350707;28;20230;-77
2023/07/16 20:56:03;;;;;;;3.55;3.00;;;21.20;99.90;;;22.14;68.35;98053.69;10353194;28;20226;-77
2023/07/16 21:01:06;;;;;;;3.78;3.30;;;21.20;99.90;;;22.12;68.66;98054.50;10353680;28;20591;-78